sensor_id;sensor_type;location;lat;lon;timestamp;P1;durP1;ratioP1;P2;durP2;ratioP2
428;SDS011;201;48.758;9.290;2022-10-24T00:01:24;5.70;;;1.37;;
428;SDS011;201;48.758;9.290;2022-10-24T00:03:49;3.83;;;1.43;;
428;SDS011;201;48.758;9.290;2022-10-24T00:06:16;2.70;;;1.10;;
428;SDS011;201;48.758;9.290;2022-10-24T00:08:42;3.93;;;1.70;;
428;SDS011;201;48.758;9.290;2022-10-24T00:11:09;3.50;;;1.30;;
428;SDS011;201;48.758;9.290;2022-10-24T00:13:46;3.30;;;1.60;;
428;SDS011;201;48.758;9.290;2022-10-24T00:16:12;1.93;;;1.10;;
428;SDS011;201;48.758;9.290;2022-10-24T00:18:37;2.40;;;0.80;;
428;SDS011;201;48.758;9.290;2022-10-24T00:21:04;2.57;;;1.10;;
428;SDS011;201;48.758;9.290;2022-10-24T00:23:30;1.70;;;0.87;;
428;SDS011;201;48.758;9.290;2022-10-24T00:25:56;9.47;;;1.33;;
428;SDS011;201;48.758;9.290;2022-10-24T00:28:25;2.20;;;1.20;;
428;SDS011;201;48.758;9.290;2022-10-24T00:30:51;8.57;;;1.00;;
428;SDS011;201;48.758;9.290;2022-10-24T00:33:17;2.90;;;1.53;;
428;SDS011;201;48.758;9.290;2022-10-24T00:35:43;2.50;;;1.10;;
428;SDS011;201;48.758;9.290;2022-10-24T00:38:08;5.93;;;1.27;;
428;SDS011;201;48.758;9.290;2022-10-24T00:40:33;3.00;;;1.17;;
428;SDS011;201;48.758;9.290;2022-10-24T00:42:59;3.33;;;1.33;;
428;SDS011;201;48.758;9.290;2022-10-24T00:48:15;3.00;;;1.30;;
428;SDS011;201;48.758;9.290;2022-10-24T00:50:42;4.73;;;1.63;;
428;SDS011;201;48.758;9.290;2022-10-24T00:53:09;2.90;;;0.90;;
428;SDS011;201;48.758;9.290;2022-10-24T00:55:35;1.90;;;0.80;;
428;SDS011;201;48.758;9.290;2022-10-24T00:58:02;2.33;;;1.00;;
428;SDS011;201;48.758;9.290;2022-10-24T01:00:31;3.37;;;1.27;;
428;SDS011;201;48.758;9.290;2022-10-24T01:02:58;2.77;;;1.23;;
428;SDS011;201;48.758;9.290;2022-10-24T01:05:25;4.00;;;2.03;;
428;SDS011;201;48.758;9.290;2022-10-24T01:08:11;5.97;;;1.30;;
428;SDS011;201;48.758;9.290;2022-10-24T01:11:03;7.47;;;1.37;;
428;SDS011;201;48.758;9.290;2022-10-24T01:21:58;5.63;;;1.30;;
428;SDS011;201;48.758;9.290;2022-10-24T01:30:12;3.70;;;1.50;;
428;SDS011;201;48.758;9.290;2022-10-24T01:38:39;2.10;;;0.70;;
428;SDS011;201;48.758;9.290;2022-10-24T01:41:10;3.30;;;1.63;;
428;SDS011;201;48.758;9.290;2022-10-24T01:43:40;3.53;;;1.30;;
428;SDS011;201;48.758;9.290;2022-10-24T01:46:17;4.43;;;1.37;;
428;SDS011;201;48.758;9.290;2022-10-24T01:48:48;1.53;;;1.00;;
428;SDS011;201;48.758;9.290;2022-10-24T01:51:18;9.70;;;1.57;;
428;SDS011;201;48.758;9.290;2022-10-24T01:53:46;3.30;;;1.30;;
428;SDS011;201;48.758;9.290;2022-10-24T01:56:13;8.80;;;1.63;;
428;SDS011;201;48.758;9.290;2022-10-24T01:58:38;3.37;;;1.47;;
428;SDS011;201;48.758;9.290;2022-10-24T02:01:07;3.50;;;1.30;;
428;SDS011;201;48.758;9.290;2022-10-24T02:03:39;5.40;;;1.50;;
428;SDS011;201;48.758;9.290;2022-10-24T02:06:15;3.80;;;1.40;;
428;SDS011;201;48.758;9.290;2022-10-24T02:08:47;4.97;;;1.67;;
428;SDS011;201;48.758;9.290;2022-10-24T02:11:17;4.20;;;1.83;;
428;SDS011;201;48.758;9.290;2022-10-24T02:13:45;4.47;;;1.30;;
428;SDS011;201;48.758;9.290;2022-10-24T02:16:22;4.30;;;1.57;;
428;SDS011;201;48.758;9.290;2022-10-24T02:18:48;4.90;;;1.20;;
428;SDS011;201;48.758;9.290;2022-10-24T02:21:17;4.70;;;1.57;;
428;SDS011;201;48.758;9.290;2022-10-24T02:24:00;4.77;;;1.93;;
428;SDS011;201;48.758;9.290;2022-10-24T02:27:07;6.20;;;1.17;;
428;SDS011;201;48.758;9.290;2022-10-24T02:29:39;3.47;;;1.43;;
428;SDS011;201;48.758;9.290;2022-10-24T02:32:11;4.43;;;1.67;;
428;SDS011;201;48.758;9.290;2022-10-24T02:34:40;3.67;;;1.30;;
428;SDS011;201;48.758;9.290;2022-10-24T02:37:06;2.33;;;1.23;;
428;SDS011;201;48.758;9.290;2022-10-24T02:39:35;8.50;;;1.67;;
428;SDS011;201;48.758;9.290;2022-10-24T02:42:03;6.50;;;1.20;;
428;SDS011;201;48.758;9.290;2022-10-24T02:44:29;6.10;;;1.47;;
428;SDS011;201;48.758;9.290;2022-10-24T02:46:57;3.97;;;1.40;;
428;SDS011;201;48.758;9.290;2022-10-24T02:49:25;6.37;;;1.80;;
428;SDS011;201;48.758;9.290;2022-10-24T02:51:50;5.67;;;1.53;;
428;SDS011;201;48.758;9.290;2022-10-24T02:54:17;4.63;;;1.50;;
428;SDS011;201;48.758;9.290;2022-10-24T02:56:45;6.20;;;1.37;;
428;SDS011;201;48.758;9.290;2022-10-24T02:59:15;5.70;;;1.80;;
428;SDS011;201;48.758;9.290;2022-10-24T03:01:41;3.07;;;1.70;;
428;SDS011;201;48.758;9.290;2022-10-24T03:04:06;2.63;;;1.33;;
428;SDS011;201;48.758;9.290;2022-10-24T03:06:32;7.10;;;1.60;;
428;SDS011;201;48.758;9.290;2022-10-24T03:08:57;4.47;;;2.03;;
428;SDS011;201;48.758;9.290;2022-10-24T03:11:23;4.27;;;2.67;;
428;SDS011;201;48.758;9.290;2022-10-24T03:13:48;4.27;;;1.47;;
428;SDS011;201;48.758;9.290;2022-10-24T03:16:15;8.73;;;2.97;;
428;SDS011;201;48.758;9.290;2022-10-24T03:18:40;6.53;;;2.20;;
428;SDS011;201;48.758;9.290;2022-10-24T03:21:06;4.30;;;2.17;;
428;SDS011;201;48.758;9.290;2022-10-24T03:23:31;4.73;;;2.23;;
428;SDS011;201;48.758;9.290;2022-10-24T03:25:57;4.30;;;1.90;;
428;SDS011;201;48.758;9.290;2022-10-24T03:28:23;4.43;;;2.17;;
428;SDS011;201;48.758;9.290;2022-10-24T03:30:49;7.47;;;3.00;;
428;SDS011;201;48.758;9.290;2022-10-24T03:33:16;3.90;;;2.27;;
428;SDS011;201;48.758;9.290;2022-10-24T03:35:41;7.53;;;2.20;;
428;SDS011;201;48.758;9.290;2022-10-24T03:38:07;6.17;;;2.00;;
428;SDS011;201;48.758;9.290;2022-10-24T03:40:36;4.97;;;1.70;;
428;SDS011;201;48.758;9.290;2022-10-24T03:43:02;6.17;;;2.20;;
428;SDS011;201;48.758;9.290;2022-10-24T03:45:28;4.23;;;2.27;;
428;SDS011;201;48.758;9.290;2022-10-24T03:47:54;6.13;;;1.83;;
428;SDS011;201;48.758;9.290;2022-10-24T03:50:19;7.97;;;2.13;;
428;SDS011;201;48.758;9.290;2022-10-24T03:52:45;5.63;;;2.07;;
428;SDS011;201;48.758;9.290;2022-10-24T03:55:11;7.70;;;2.43;;
428;SDS011;201;48.758;9.290;2022-10-24T03:57:37;5.53;;;2.40;;
428;SDS011;201;48.758;9.290;2022-10-24T04:00:03;4.70;;;2.27;;
428;SDS011;201;48.758;9.290;2022-10-24T04:02:29;6.87;;;2.80;;
428;SDS011;201;48.758;9.290;2022-10-24T04:04:55;6.60;;;2.27;;
428;SDS011;201;48.758;9.290;2022-10-24T04:07:20;4.37;;;2.07;;
428;SDS011;201;48.758;9.290;2022-10-24T04:09:46;7.00;;;2.23;;
428;SDS011;201;48.758;9.290;2022-10-24T04:12:12;6.83;;;3.00;;
428;SDS011;201;48.758;9.290;2022-10-24T04:14:38;4.33;;;1.83;;
428;SDS011;201;48.758;9.290;2022-10-24T04:17:03;6.13;;;2.20;;
428;SDS011;201;48.758;9.290;2022-10-24T04:19:29;5.80;;;3.43;;
428;SDS011;201;48.758;9.290;2022-10-24T04:21:54;3.83;;;2.40;;
428;SDS011;201;48.758;9.290;2022-10-24T04:24:20;6.70;;;2.23;;
428;SDS011;201;48.758;9.290;2022-10-24T04:26:45;3.50;;;2.47;;
428;SDS011;201;48.758;9.290;2022-10-24T04:29:11;5.20;;;1.93;;
428;SDS011;201;48.758;9.290;2022-10-24T04:31:37;5.80;;;2.17;;
428;SDS011;201;48.758;9.290;2022-10-24T04:34:02;7.27;;;2.33;;
428;SDS011;201;48.758;9.290;2022-10-24T04:36:29;4.70;;;2.23;;
428;SDS011;201;48.758;9.290;2022-10-24T04:38:55;6.40;;;2.37;;
428;SDS011;201;48.758;9.290;2022-10-24T04:41:21;8.57;;;2.17;;
428;SDS011;201;48.758;9.290;2022-10-24T04:43:46;7.00;;;1.90;;
428;SDS011;201;48.758;9.290;2022-10-24T04:46:12;7.63;;;2.77;;
428;SDS011;201;48.758;9.290;2022-10-24T04:48:37;6.57;;;2.10;;
428;SDS011;201;48.758;9.290;2022-10-24T04:51:03;4.93;;;2.17;;
428;SDS011;201;48.758;9.290;2022-10-24T04:53:29;11.40;;;2.40;;
428;SDS011;201;48.758;9.290;2022-10-24T04:55:54;13.03;;;3.03;;
428;SDS011;201;48.758;9.290;2022-10-24T04:58:20;7.70;;;1.90;;
428;SDS011;201;48.758;9.290;2022-10-24T05:00:46;10.60;;;2.70;;
428;SDS011;201;48.758;9.290;2022-10-24T05:03:13;2.77;;;1.87;;
428;SDS011;201;48.758;9.290;2022-10-24T05:05:43;4.93;;;1.87;;
428;SDS011;201;48.758;9.290;2022-10-24T05:08:09;9.83;;;2.50;;
428;SDS011;201;48.758;9.290;2022-10-24T05:10:34;7.30;;;2.53;;
428;SDS011;201;48.758;9.290;2022-10-24T05:13:00;5.20;;;2.17;;
428;SDS011;201;48.758;9.290;2022-10-24T05:15:25;11.03;;;2.30;;
428;SDS011;201;48.758;9.290;2022-10-24T05:17:53;12.73;;;2.83;;
428;SDS011;201;48.758;9.290;2022-10-24T05:20:20;3.73;;;2.10;;
428;SDS011;201;48.758;9.290;2022-10-24T05:22:45;7.43;;;2.43;;
428;SDS011;201;48.758;9.290;2022-10-24T05:25:11;9.73;;;2.20;;
428;SDS011;201;48.758;9.290;2022-10-24T05:27:36;9.20;;;2.30;;
428;SDS011;201;48.758;9.290;2022-10-24T05:30:02;5.27;;;2.27;;
428;SDS011;201;48.758;9.290;2022-10-24T05:32:28;8.07;;;2.20;;
428;SDS011;201;48.758;9.290;2022-10-24T05:34:54;15.33;;;2.80;;
428;SDS011;201;48.758;9.290;2022-10-24T05:37:19;7.20;;;2.20;;
428;SDS011;201;48.758;9.290;2022-10-24T05:39:45;5.57;;;2.23;;
428;SDS011;201;48.758;9.290;2022-10-24T05:42:10;8.70;;;2.23;;
428;SDS011;201;48.758;9.290;2022-10-24T05:44:36;4.43;;;2.73;;
428;SDS011;201;48.758;9.290;2022-10-24T05:47:02;4.57;;;2.13;;
428;SDS011;201;48.758;9.290;2022-10-24T05:49:27;6.10;;;2.60;;
428;SDS011;201;48.758;9.290;2022-10-24T05:51:53;6.23;;;2.40;;
428;SDS011;201;48.758;9.290;2022-10-24T05:54:18;7.60;;;2.03;;
428;SDS011;201;48.758;9.290;2022-10-24T05:56:44;6.63;;;2.47;;
428;SDS011;201;48.758;9.290;2022-10-24T05:59:09;5.53;;;2.20;;
428;SDS011;201;48.758;9.290;2022-10-24T06:01:35;3.77;;;1.90;;
428;SDS011;201;48.758;9.290;2022-10-24T06:04:00;7.77;;;1.90;;
428;SDS011;201;48.758;9.290;2022-10-24T06:06:26;3.17;;;1.43;;
428;SDS011;201;48.758;9.290;2022-10-24T06:08:52;3.90;;;1.70;;
428;SDS011;201;48.758;9.290;2022-10-24T06:11:18;4.13;;;1.60;;
428;SDS011;201;48.758;9.290;2022-10-24T06:13:43;5.67;;;2.13;;
428;SDS011;201;48.758;9.290;2022-10-24T06:16:09;6.00;;;2.20;;
428;SDS011;201;48.758;9.290;2022-10-24T06:18:36;4.47;;;1.80;;
428;SDS011;201;48.758;9.290;2022-10-24T06:21:03;5.97;;;1.77;;
428;SDS011;201;48.758;9.290;2022-10-24T06:23:30;3.60;;;1.77;;
428;SDS011;201;48.758;9.290;2022-10-24T06:25:56;2.63;;;1.47;;
428;SDS011;201;48.758;9.290;2022-10-24T06:28:22;3.47;;;1.67;;
428;SDS011;201;48.758;9.290;2022-10-24T06:30:48;3.23;;;1.30;;
428;SDS011;201;48.758;9.290;2022-10-24T06:33:15;5.53;;;1.47;;
428;SDS011;201;48.758;9.290;2022-10-24T06:35:40;8.27;;;2.03;;
428;SDS011;201;48.758;9.290;2022-10-24T06:38:06;3.97;;;1.30;;
428;SDS011;201;48.758;9.290;2022-10-24T06:40:31;7.53;;;1.70;;
428;SDS011;201;48.758;9.290;2022-10-24T06:42:57;4.73;;;1.77;;
428;SDS011;201;48.758;9.290;2022-10-24T06:45:23;3.40;;;2.30;;
428;SDS011;201;48.758;9.290;2022-10-24T06:47:49;5.03;;;1.70;;
428;SDS011;201;48.758;9.290;2022-10-24T06:50:15;4.27;;;1.50;;
428;SDS011;201;48.758;9.290;2022-10-24T06:52:41;4.40;;;1.83;;
428;SDS011;201;48.758;9.290;2022-10-24T06:55:07;2.90;;;1.17;;
428;SDS011;201;48.758;9.290;2022-10-24T06:57:33;6.03;;;2.20;;
428;SDS011;201;48.758;9.290;2022-10-24T06:59:58;4.50;;;1.70;;
428;SDS011;201;48.758;9.290;2022-10-24T07:02:24;7.23;;;1.60;;
428;SDS011;201;48.758;9.290;2022-10-24T07:04:50;4.80;;;1.83;;
428;SDS011;201;48.758;9.290;2022-10-24T07:07:16;5.60;;;1.50;;
428;SDS011;201;48.758;9.290;2022-10-24T07:09:43;4.60;;;1.63;;
428;SDS011;201;48.758;9.290;2022-10-24T07:12:10;3.07;;;1.70;;
428;SDS011;201;48.758;9.290;2022-10-24T07:14:35;5.10;;;1.87;;
428;SDS011;201;48.758;9.290;2022-10-24T07:17:01;5.20;;;2.33;;
428;SDS011;201;48.758;9.290;2022-10-24T07:19:27;3.97;;;1.63;;
428;SDS011;201;48.758;9.290;2022-10-24T07:21:53;5.43;;;1.73;;
428;SDS011;201;48.758;9.290;2022-10-24T07:24:18;6.87;;;2.07;;
428;SDS011;201;48.758;9.290;2022-10-24T07:26:46;8.00;;;3.40;;
428;SDS011;201;48.758;9.290;2022-10-24T07:29:12;6.03;;;2.70;;
428;SDS011;201;48.758;9.290;2022-10-24T07:31:37;6.10;;;2.23;;
428;SDS011;201;48.758;9.290;2022-10-24T07:34:03;6.10;;;2.47;;
428;SDS011;201;48.758;9.290;2022-10-24T07:36:30;4.73;;;2.33;;
428;SDS011;201;48.758;9.290;2022-10-24T07:38:56;5.50;;;2.40;;
428;SDS011;201;48.758;9.290;2022-10-24T07:41:24;3.80;;;2.57;;
428;SDS011;201;48.758;9.290;2022-10-24T07:43:51;9.33;;;2.10;;
428;SDS011;201;48.758;9.290;2022-10-24T07:46:21;5.17;;;2.43;;
428;SDS011;201;48.758;9.290;2022-10-24T07:48:49;4.67;;;2.00;;
428;SDS011;201;48.758;9.290;2022-10-24T07:51:16;4.47;;;1.90;;
428;SDS011;201;48.758;9.290;2022-10-24T07:53:42;10.80;;;2.90;;
428;SDS011;201;48.758;9.290;2022-10-24T07:56:09;5.33;;;2.57;;
428;SDS011;201;48.758;9.290;2022-10-24T07:58:38;8.60;;;2.53;;
428;SDS011;201;48.758;9.290;2022-10-24T08:01:05;7.30;;;2.60;;
428;SDS011;201;48.758;9.290;2022-10-24T08:03:33;4.20;;;1.73;;
428;SDS011;201;48.758;9.290;2022-10-24T08:06:02;7.87;;;2.33;;
428;SDS011;201;48.758;9.290;2022-10-24T08:08:29;4.73;;;2.37;;
428;SDS011;201;48.758;9.290;2022-10-24T08:10:55;6.93;;;2.13;;
428;SDS011;201;48.758;9.290;2022-10-24T08:13:20;6.50;;;2.60;;
428;SDS011;201;48.758;9.290;2022-10-24T08:15:46;4.77;;;2.67;;
428;SDS011;201;48.758;9.290;2022-10-24T08:18:11;10.80;;;2.70;;
428;SDS011;201;48.758;9.290;2022-10-24T08:20:37;4.70;;;1.97;;
428;SDS011;201;48.758;9.290;2022-10-24T08:23:03;7.43;;;3.10;;
428;SDS011;201;48.758;9.290;2022-10-24T08:25:28;5.70;;;3.30;;
428;SDS011;201;48.758;9.290;2022-10-24T08:27:54;7.53;;;2.50;;
428;SDS011;201;48.758;9.290;2022-10-24T08:30:19;8.13;;;3.03;;
428;SDS011;201;48.758;9.290;2022-10-24T08:32:45;6.43;;;2.70;;
428;SDS011;201;48.758;9.290;2022-10-24T08:35:14;4.97;;;2.50;;
428;SDS011;201;48.758;9.290;2022-10-24T08:37:41;7.17;;;3.00;;
428;SDS011;201;48.758;9.290;2022-10-24T08:40:07;3.70;;;2.60;;
428;SDS011;201;48.758;9.290;2022-10-24T08:42:39;7.67;;;2.70;;
428;SDS011;201;48.758;9.290;2022-10-24T08:45:08;15.93;;;2.87;;
428;SDS011;201;48.758;9.290;2022-10-24T08:47:45;7.10;;;2.50;;
428;SDS011;201;48.758;9.290;2022-10-24T08:50:31;6.33;;;2.20;;
428;SDS011;201;48.758;9.290;2022-10-24T08:53:03;7.40;;;2.90;;
428;SDS011;201;48.758;9.290;2022-10-24T08:55:38;7.63;;;2.80;;
428;SDS011;201;48.758;9.290;2022-10-24T08:58:10;7.57;;;2.70;;
428;SDS011;201;48.758;9.290;2022-10-24T09:00:41;4.77;;;2.70;;
428;SDS011;201;48.758;9.290;2022-10-24T09:06:01;7.63;;;2.57;;
428;SDS011;201;48.758;9.290;2022-10-24T09:08:38;8.80;;;3.13;;
428;SDS011;201;48.758;9.290;2022-10-24T09:11:10;7.63;;;3.30;;
428;SDS011;201;48.758;9.290;2022-10-24T09:13:43;5.80;;;2.57;;
428;SDS011;201;48.758;9.290;2022-10-24T09:16:20;9.23;;;3.30;;
428;SDS011;201;48.758;9.290;2022-10-24T09:18:48;5.47;;;2.87;;
428;SDS011;201;48.758;9.290;2022-10-24T09:21:17;8.57;;;3.20;;
428;SDS011;201;48.758;9.290;2022-10-24T09:23:43;13.87;;;3.43;;
428;SDS011;201;48.758;9.290;2022-10-24T09:26:13;7.30;;;3.03;;
428;SDS011;201;48.758;9.290;2022-10-24T09:28:47;5.30;;;3.10;;
428;SDS011;201;48.758;9.290;2022-10-24T09:31:17;5.30;;;3.03;;
428;SDS011;201;48.758;9.290;2022-10-24T09:33:45;7.57;;;3.57;;
428;SDS011;201;48.758;9.290;2022-10-24T09:36:13;11.20;;;3.50;;
428;SDS011;201;48.758;9.290;2022-10-24T09:38:42;10.17;;;3.80;;
428;SDS011;201;48.758;9.290;2022-10-24T09:43:46;13.40;;;4.87;;
428;SDS011;201;48.758;9.290;2022-10-24T09:46:18;4.73;;;3.07;;
428;SDS011;201;48.758;9.290;2022-10-24T09:48:54;5.73;;;3.27;;
428;SDS011;201;48.758;9.290;2022-10-24T09:51:24;8.10;;;4.07;;
428;SDS011;201;48.758;9.290;2022-10-24T09:53:57;11.40;;;3.80;;
428;SDS011;201;48.758;9.290;2022-10-24T09:56:36;5.63;;;3.20;;
428;SDS011;201;48.758;9.290;2022-10-24T10:07:30;6.67;;;3.40;;
428;SDS011;201;48.758;9.290;2022-10-24T10:09:58;7.53;;;3.47;;
428;SDS011;201;48.758;9.290;2022-10-24T10:12:33;7.57;;;3.40;;
428;SDS011;201;48.758;9.290;2022-10-24T10:15:01;14.80;;;4.20;;
428;SDS011;201;48.758;9.290;2022-10-24T10:17:47;9.30;;;3.80;;
428;SDS011;201;48.758;9.290;2022-10-24T10:20:32;7.97;;;4.10;;
428;SDS011;201;48.758;9.290;2022-10-24T10:26:14;7.17;;;3.63;;
428;SDS011;201;48.758;9.290;2022-10-24T10:28:42;10.43;;;3.47;;
428;SDS011;201;48.758;9.290;2022-10-24T10:31:07;3.70;;;2.70;;
428;SDS011;201;48.758;9.290;2022-10-24T10:36:15;6.40;;;2.17;;
428;SDS011;201;48.758;9.290;2022-10-24T10:38:47;4.27;;;2.57;;
428;SDS011;201;48.758;9.290;2022-10-24T10:41:36;5.13;;;2.10;;
428;SDS011;201;48.758;9.290;2022-10-24T10:46:55;6.53;;;1.97;;
428;SDS011;201;48.758;9.290;2022-10-24T10:49:37;12.97;;;2.30;;
428;SDS011;201;48.758;9.290;2022-10-24T10:52:24;6.60;;;1.93;;
428;SDS011;201;48.758;9.290;2022-10-24T10:55:10;11.37;;;2.37;;
428;SDS011;201;48.758;9.290;2022-10-24T10:57:52;6.60;;;1.80;;
428;SDS011;201;48.758;9.290;2022-10-24T11:03:16;5.50;;;1.17;;
428;SDS011;201;48.758;9.290;2022-10-24T11:05:57;6.83;;;1.50;;
428;SDS011;201;48.758;9.290;2022-10-24T11:11:42;1.97;;;0.73;;
428;SDS011;201;48.758;9.290;2022-10-24T11:14:27;4.43;;;1.27;;
428;SDS011;201;48.758;9.290;2022-10-24T11:16:57;3.23;;;1.10;;
428;SDS011;201;48.758;9.290;2022-10-24T11:21:59;4.33;;;1.17;;
428;SDS011;201;48.758;9.290;2022-10-24T11:24:28;3.77;;;1.43;;
428;SDS011;201;48.758;9.290;2022-10-24T11:27:12;3.27;;;1.80;;
428;SDS011;201;48.758;9.290;2022-10-24T11:29:53;3.93;;;2.13;;
428;SDS011;201;48.758;9.290;2022-10-24T11:32:33;2.23;;;1.20;;
428;SDS011;201;48.758;9.290;2022-10-24T11:38:06;1.70;;;1.10;;
428;SDS011;201;48.758;9.290;2022-10-24T11:40:42;4.03;;;1.30;;
428;SDS011;201;48.758;9.290;2022-10-24T11:43:15;2.00;;;0.87;;
428;SDS011;201;48.758;9.290;2022-10-24T11:45:47;4.37;;;1.17;;
428;SDS011;201;48.758;9.290;2022-10-24T11:50:51;3.70;;;1.20;;
428;SDS011;201;48.758;9.290;2022-10-24T11:55:57;5.40;;;1.33;;
428;SDS011;201;48.758;9.290;2022-10-24T11:58:27;1.40;;;1.00;;
428;SDS011;201;48.758;9.290;2022-10-24T12:06:43;4.07;;;1.00;;
428;SDS011;201;48.758;9.290;2022-10-24T12:09:26;1.10;;;0.90;;
428;SDS011;201;48.758;9.290;2022-10-24T12:12:18;2.30;;;1.10;;
428;SDS011;201;48.758;9.290;2022-10-24T12:15:09;5.73;;;1.13;;
428;SDS011;201;48.758;9.290;2022-10-24T12:18:03;2.87;;;0.87;;
428;SDS011;201;48.758;9.290;2022-10-24T12:20:33;6.03;;;1.20;;
428;SDS011;201;48.758;9.290;2022-10-24T12:23:00;2.20;;;0.90;;
428;SDS011;201;48.758;9.290;2022-10-24T12:25:31;1.30;;;1.07;;
428;SDS011;201;48.758;9.290;2022-10-24T12:28:01;1.23;;;0.80;;
428;SDS011;201;48.758;9.290;2022-10-24T12:30:29;3.20;;;1.00;;
428;SDS011;201;48.758;9.290;2022-10-24T12:35:58;2.50;;;0.90;;
428;SDS011;201;48.758;9.290;2022-10-24T12:40:53;2.13;;;0.90;;
428;SDS011;201;48.758;9.290;2022-10-24T12:43:37;4.13;;;1.00;;
428;SDS011;201;48.758;9.290;2022-10-24T12:48:42;1.77;;;0.87;;
428;SDS011;201;48.758;9.290;2022-10-24T12:51:30;2.47;;;0.90;;
428;SDS011;201;48.758;9.290;2022-10-24T12:54:02;0.97;;;0.80;;
428;SDS011;201;48.758;9.290;2022-10-24T12:57:20;3.73;;;0.90;;
428;SDS011;201;48.758;9.290;2022-10-24T12:59:44;1.47;;;1.37;;
428;SDS011;201;48.758;9.290;2022-10-24T13:12:55;1.87;;;0.90;;
428;SDS011;201;48.758;9.290;2022-10-24T13:15:34;1.10;;;0.70;;
428;SDS011;201;48.758;9.290;2022-10-24T13:23:41;2.20;;;1.03;;
428;SDS011;201;48.758;9.290;2022-10-24T13:26:08;3.30;;;1.17;;
428;SDS011;201;48.758;9.290;2022-10-24T13:28:55;1.40;;;0.90;;
428;SDS011;201;48.758;9.290;2022-10-24T13:33:46;1.63;;;0.70;;
428;SDS011;201;48.758;9.290;2022-10-24T13:36:14;2.00;;;0.80;;
428;SDS011;201;48.758;9.290;2022-10-24T13:38:47;2.73;;;0.90;;
428;SDS011;201;48.758;9.290;2022-10-24T13:41:20;1.03;;;0.97;;
428;SDS011;201;48.758;9.290;2022-10-24T13:43:59;4.57;;;0.90;;
428;SDS011;201;48.758;9.290;2022-10-24T13:47:04;1.27;;;0.90;;
428;SDS011;201;48.758;9.290;2022-10-24T13:49:46;2.00;;;1.30;;
428;SDS011;201;48.758;9.290;2022-10-24T13:52:30;3.90;;;1.17;;
428;SDS011;201;48.758;9.290;2022-10-24T13:55:12;3.47;;;1.10;;
428;SDS011;201;48.758;9.290;2022-10-24T13:58:45;1.20;;;0.70;;
428;SDS011;201;48.758;9.290;2022-10-24T14:00:42;2.00;;;1.63;;
428;SDS011;201;48.758;9.290;2022-10-24T14:03:14;1.00;;;0.80;;
428;SDS011;201;48.758;9.290;2022-10-24T14:05:58;2.40;;;1.00;;
428;SDS011;201;48.758;9.290;2022-10-24T14:08:34;1.40;;;1.00;;
428;SDS011;201;48.758;9.290;2022-10-24T14:11:16;2.60;;;0.90;;
428;SDS011;201;48.758;9.290;2022-10-24T14:13:48;2.77;;;1.20;;
428;SDS011;201;48.758;9.290;2022-10-24T14:16:22;2.33;;;0.90;;
428;SDS011;201;48.758;9.290;2022-10-24T14:19:11;3.00;;;1.63;;
428;SDS011;201;48.758;9.290;2022-10-24T14:21:50;3.50;;;1.83;;
428;SDS011;201;48.758;9.290;2022-10-24T14:24:17;2.53;;;0.90;;
428;SDS011;201;48.758;9.290;2022-10-24T14:26:45;4.20;;;1.40;;
428;SDS011;201;48.758;9.290;2022-10-24T14:29:28;2.27;;;1.30;;
428;SDS011;201;48.758;9.290;2022-10-24T14:32:00;3.53;;;1.10;;
428;SDS011;201;48.758;9.290;2022-10-24T14:34:27;1.90;;;1.20;;
428;SDS011;201;48.758;9.290;2022-10-24T14:36:55;3.40;;;1.27;;
428;SDS011;201;48.758;9.290;2022-10-24T14:39:26;2.30;;;1.27;;
428;SDS011;201;48.758;9.290;2022-10-24T14:41:52;1.33;;;1.00;;
428;SDS011;201;48.758;9.290;2022-10-24T14:44:18;5.40;;;1.43;;
428;SDS011;201;48.758;9.290;2022-10-24T14:46:46;2.53;;;1.80;;
428;SDS011;201;48.758;9.290;2022-10-24T14:49:31;3.80;;;1.13;;
428;SDS011;201;48.758;9.290;2022-10-24T14:52:07;4.57;;;1.00;;
428;SDS011;201;48.758;9.290;2022-10-24T14:54:34;2.10;;;1.50;;
428;SDS011;201;48.758;9.290;2022-10-24T14:57:01;2.97;;;1.50;;
428;SDS011;201;48.758;9.290;2022-10-24T14:59:29;1.67;;;1.00;;
428;SDS011;201;48.758;9.290;2022-10-24T15:04:44;1.50;;;1.07;;
428;SDS011;201;48.758;9.290;2022-10-24T15:07:30;4.80;;;1.30;;
428;SDS011;201;48.758;9.290;2022-10-24T15:12:37;1.10;;;0.80;;
428;SDS011;201;48.758;9.290;2022-10-24T15:17:43;2.00;;;1.20;;
428;SDS011;201;48.758;9.290;2022-10-24T15:20:11;5.07;;;1.67;;
428;SDS011;201;48.758;9.290;2022-10-24T15:22:44;2.67;;;1.87;;
428;SDS011;201;48.758;9.290;2022-10-24T15:25:17;1.43;;;0.97;;
428;SDS011;201;48.758;9.290;2022-10-24T15:27:43;4.33;;;1.30;;
428;SDS011;201;48.758;9.290;2022-10-24T15:30:13;4.70;;;1.40;;
428;SDS011;201;48.758;9.290;2022-10-24T15:32:39;4.03;;;1.47;;
428;SDS011;201;48.758;9.290;2022-10-24T15:35:05;1.57;;;1.20;;
428;SDS011;201;48.758;9.290;2022-10-24T15:37:31;2.73;;;1.70;;
428;SDS011;201;48.758;9.290;2022-10-24T15:39:56;2.80;;;1.23;;
428;SDS011;201;48.758;9.290;2022-10-24T15:42:27;1.70;;;1.00;;
428;SDS011;201;48.758;9.290;2022-10-24T15:44:53;3.17;;;1.23;;
428;SDS011;201;48.758;9.290;2022-10-24T15:47:18;3.47;;;1.37;;
428;SDS011;201;48.758;9.290;2022-10-24T15:49:47;8.33;;;1.97;;
428;SDS011;201;48.758;9.290;2022-10-24T15:52:14;3.80;;;1.33;;
428;SDS011;201;48.758;9.290;2022-10-24T15:54:40;2.97;;;1.43;;
428;SDS011;201;48.758;9.290;2022-10-24T15:57:08;3.40;;;1.53;;
428;SDS011;201;48.758;9.290;2022-10-24T15:59:36;2.40;;;1.43;;
428;SDS011;201;48.758;9.290;2022-10-24T16:02:01;2.63;;;1.37;;
428;SDS011;201;48.758;9.290;2022-10-24T16:04:27;2.60;;;1.27;;
428;SDS011;201;48.758;9.290;2022-10-24T16:06:56;1.53;;;1.13;;
428;SDS011;201;48.758;9.290;2022-10-24T16:09:23;2.87;;;1.57;;
428;SDS011;201;48.758;9.290;2022-10-24T16:11:51;3.30;;;1.50;;
428;SDS011;201;48.758;9.290;2022-10-24T16:14:18;3.13;;;1.60;;
428;SDS011;201;48.758;9.290;2022-10-24T16:16:45;3.17;;;1.83;;
428;SDS011;201;48.758;9.290;2022-10-24T16:19:11;2.73;;;1.40;;
428;SDS011;201;48.758;9.290;2022-10-24T16:21:37;2.70;;;1.30;;
428;SDS011;201;48.758;9.290;2022-10-24T16:24:05;3.93;;;1.20;;
428;SDS011;201;48.758;9.290;2022-10-24T16:26:31;2.40;;;1.70;;
428;SDS011;201;48.758;9.290;2022-10-24T16:28:58;3.20;;;1.60;;
428;SDS011;201;48.758;9.290;2022-10-24T16:31:23;4.63;;;1.77;;
428;SDS011;201;48.758;9.290;2022-10-24T16:33:49;1.80;;;1.50;;
428;SDS011;201;48.758;9.290;2022-10-24T16:36:16;3.47;;;1.97;;
428;SDS011;201;48.758;9.290;2022-10-24T16:38:42;1.70;;;1.40;;
428;SDS011;201;48.758;9.290;2022-10-24T16:41:13;2.90;;;1.77;;
428;SDS011;201;48.758;9.290;2022-10-24T16:43:45;5.03;;;2.43;;
428;SDS011;201;48.758;9.290;2022-10-24T16:46:13;1.53;;;1.53;;
428;SDS011;201;48.758;9.290;2022-10-24T16:48:40;2.07;;;1.83;;
428;SDS011;201;48.758;9.290;2022-10-24T16:51:10;2.13;;;1.70;;
428;SDS011;201;48.758;9.290;2022-10-24T16:53:37;3.70;;;1.73;;
428;SDS011;201;48.758;9.290;2022-10-24T16:56:03;3.27;;;1.80;;
428;SDS011;201;48.758;9.290;2022-10-24T16:58:29;2.80;;;1.87;;
428;SDS011;201;48.758;9.290;2022-10-24T17:01:02;6.17;;;2.27;;
428;SDS011;201;48.758;9.290;2022-10-24T17:03:29;2.53;;;1.60;;
428;SDS011;201;48.758;9.290;2022-10-24T17:05:54;4.13;;;1.70;;
428;SDS011;201;48.758;9.290;2022-10-24T17:08:20;2.57;;;2.07;;
428;SDS011;201;48.758;9.290;2022-10-24T17:10:46;2.37;;;2.00;;
428;SDS011;201;48.758;9.290;2022-10-24T17:13:11;3.90;;;1.90;;
428;SDS011;201;48.758;9.290;2022-10-24T17:15:37;2.63;;;1.70;;
428;SDS011;201;48.758;9.290;2022-10-24T17:18:03;2.47;;;1.93;;
428;SDS011;201;48.758;9.290;2022-10-24T17:20:29;6.13;;;2.03;;
428;SDS011;201;48.758;9.290;2022-10-24T17:22:55;5.87;;;1.63;;
428;SDS011;201;48.758;9.290;2022-10-24T17:25:22;4.13;;;1.73;;
428;SDS011;201;48.758;9.290;2022-10-24T17:27:49;3.80;;;2.23;;
428;SDS011;201;48.758;9.290;2022-10-24T17:30:17;5.53;;;1.77;;
428;SDS011;201;48.758;9.290;2022-10-24T17:32:46;3.70;;;2.10;;
428;SDS011;201;48.758;9.290;2022-10-24T17:35:12;2.80;;;2.40;;
428;SDS011;201;48.758;9.290;2022-10-24T17:37:41;2.77;;;2.13;;
428;SDS011;201;48.758;9.290;2022-10-24T17:40:13;4.77;;;2.50;;
428;SDS011;201;48.758;9.290;2022-10-24T17:42:41;4.10;;;2.50;;